Time;durP1;ratioP1;P1;durP2;ratioP2;P2;SDS_P1;SDS_P2;PMS_P1;PMS_P2;Temp;Humidity;BMP_temperature;BMP_pressure;BME280_temperature;BME280_humidity;BME280_pressure;Samples;Min_cycle;Max_cycle;Signal;HPM_P1;HPM_P2
2023/05/30 00:01:14;;;;;;;4.00;1.87;;;21.10;40.10;;;;;;2459024;55;21011;-68
2023/05/30 00:03:44;;;;;;;4.60;1.80;;;21.10;40.20;;;;;;2236022;56;20971;-69
2023/05/30 00:06:22;;;;;;;3.08;1.77;;;21.10;40.20;;;;;;2210990;57;21420;-71
2023/05/30 00:08:48;;;;;;;4.20;1.48;;;21.20;40.40;;;;;;2455536;55;20971;-68
2023/05/30 00:11:18;;;;;;;2.75;1.40;;;21.10;40.10;;;;;;2247845;57;20968;-68
2023/05/30 00:13:44;;;;;;;3.37;1.62;;;21.10;40.20;;;;;;2238258;56;21033;-70
2023/05/30 00:16:12;;;;;;;4.37;1.70;;;21.10;40.10;;;;;;2251725;56;20948;-68
2023/05/30 00:18:39;;;;;;;3.20;1.30;;;21.10;40.20;;;;;;2459503;55;21503;-70
2023/05/30 00:21:09;;;;;;;3.97;1.73;;;21.10;40.20;;;;;;2236035;56;21493;-68
2023/05/30 00:23:37;;;;;;;3.70;1.52;;;21.10;40.20;;;;;;2236009;56;20951;-67
2023/05/30 00:26:04;;;;;;;3.20;1.60;;;21.10;40.20;;;;;;2236444;56;20947;-68
2023/05/30 00:28:30;;;;;;;3.30;1.52;;;21.10;40.20;;;;;;2458880;55;21059;-68
2023/05/30 00:30:57;;;;;;;3.28;1.40;;;21.00;40.10;;;;;;2455728;55;21564;-72
2023/05/30 00:33:24;;;;;;;3.90;1.62;;;21.10;40.20;;;;;;2453843;55;20991;-68
2023/05/30 00:35:50;;;;;;;3.35;1.60;;;21.00;40.30;;;;;;2231709;56;21055;-68
2023/05/30 00:38:16;;;;;;;3.90;1.60;;;21.00;40.30;;;;;;2230731;56;21024;-68
2023/05/30 00:40:44;;;;;;;3.78;1.50;;;20.90;40.20;;;;;;2451210;55;20964;-68
2023/05/30 00:43:10;;;;;;;3.80;1.30;;;20.90;40.30;;;;;;2472982;55;20969;-72
2023/05/30 00:45:37;;;;;;;3.28;1.60;;;20.90;40.30;;;;;;2252549;56;22486;-68
2023/05/30 00:48:04;;;;;;;2.90;1.40;;;20.80;40.20;;;;;;2479750;55;21036;-68
2023/05/30 00:50:30;;;;;;;2.70;1.30;;;20.80;40.30;;;;;;2251469;56;22070;-69
2023/05/30 00:52:59;;;;;;;2.83;1.27;;;20.80;40.40;;;;;;2479879;55;21046;-68
2023/05/30 00:55:29;;;;;;;3.40;1.60;;;20.80;40.50;;;;;;2255019;56;20968;-68
2023/05/30 00:57:56;;;;;;;3.42;1.70;;;20.70;40.50;;;;;;2256092;56;21115;-70
2023/05/30 01:00:24;;;;;;;3.58;1.65;;;20.70;40.50;;;;;;2255369;56;20952;-68
2023/05/30 01:02:51;;;;;;;3.22;1.48;;;20.70;40.60;;;;;;2256083;56;20972;-67
2023/05/30 01:05:19;;;;;;;4.45;1.62;;;20.60;40.60;;;;;;2256439;56;20997;-70
2023/05/30 01:07:45;;;;;;;3.58;1.73;;;20.60;40.70;;;;;;2256589;57;21117;-70
2023/05/30 01:10:12;;;;;;;3.12;1.30;;;20.60;40.80;;;;;;2485611;55;21017;-70
2023/05/30 01:18:51;;;;;;;2.92;1.45;;;20.50;40.80;;;;;;2487272;55;20949;-72
2023/05/30 01:21:19;;;;;;;3.42;1.40;;;20.50;40.90;;;;;;2261812;56;20953;-68
2023/05/30 01:24:46;;;;;;;2.78;1.40;;;20.40;40.60;;;;;;2259118;56;20961;-67
2023/05/30 01:27:31;;;;;;;2.60;1.40;;;20.40;41.20;;;;;;2444958;56;21024;-69
2023/05/30 01:29:58;;;;;;;3.08;1.58;;;20.40;41.20;;;;;;2228805;57;20983;-68
2023/05/30 01:32:30;;;;;;;3.47;1.52;;;20.30;40.90;;;;;;2233707;56;21908;-68
2023/05/30 01:34:57;;;;;;;3.70;1.30;;;20.20;41.00;;;;;;2456253;55;21070;-68
2023/05/30 01:37:24;;;;;;;3.00;1.45;;;20.20;41.00;;;;;;2233149;56;20995;-68
2023/05/30 01:39:50;;;;;;;3.80;1.60;;;20.20;41.20;;;;;;2234168;56;21316;-68
2023/05/30 01:42:24;;;;;;;3.80;1.73;;;20.20;41.40;;;;;;2233000;56;21010;-71
2023/05/30 01:45:07;;;;;;;3.65;1.62;;;20.10;41.50;;;;;;2236644;56;21849;-68
2023/05/30 01:47:58;;;;;;;3.70;1.52;;;20.10;41.60;;;;;;2233070;56;21855;-68
2023/05/30 01:50:32;;;;;;;4.25;1.40;;;20.10;41.80;;;;;;2466534;55;21013;-67
2023/05/30 01:52:59;;;;;;;3.53;1.40;;;20.00;41.50;;;;;;2237625;56;21043;-69
2023/05/30 01:55:25;;;;;;;4.00;1.45;;;20.00;41.50;;;;;;2226429;56;21054;-71
2023/05/30 01:57:52;;;;;;;3.35;1.48;;;20.00;41.50;;;;;;2234064;56;20972;-68
2023/05/30 02:00:18;;;;;;;4.12;1.60;;;19.90;41.50;;;;;;2456166;55;20951;-67
2023/05/30 02:02:45;;;;;;;2.67;1.30;;;19.90;41.60;;;;;;2456810;55;21019;-68
2023/05/30 02:05:11;;;;;;;3.30;1.40;;;19.90;41.70;;;;;;2234398;56;21042;-71
2023/05/30 02:07:40;;;;;;;3.25;1.70;;;19.90;41.70;;;;;;2448445;55;21027;-68
2023/05/30 02:10:08;;;;;;;3.25;1.52;;;19.80;42.00;;;;;;2239189;56;20952;-68
2023/05/30 02:12:34;;;;;;;3.10;1.60;;;19.80;41.90;;;;;;2233746;56;22138;-68
2023/05/30 02:15:00;;;;;;;3.28;1.58;;;19.80;41.90;;;;;;2456116;55;22052;-68
2023/05/30 02:17:27;;;;;;;3.30;1.40;;;19.70;41.90;;;;;;2233570;56;21425;-67
2023/05/30 02:19:55;;;;;;;2.78;1.40;;;19.70;41.90;;;;;;2456297;55;21005;-68
2023/05/30 02:22:21;;;;;;;3.25;1.50;;;19.70;41.90;;;;;;2455696;56;20980;-67
2023/05/30 02:24:50;;;;;;;3.08;1.60;;;19.60;41.90;;;;;;2233654;56;20987;-70
2023/05/30 02:27:16;;;;;;;2.87;1.35;;;19.60;41.90;;;;;;2456692;55;20952;-68
2023/05/30 02:29:42;;;;;;;2.97;1.40;;;19.50;41.90;;;;;;2233403;56;21560;-67
2023/05/30 02:32:09;;;;;;;3.30;1.67;;;19.50;42.10;;;;;;2234447;56;21055;-70
2023/05/30 02:34:35;;;;;;;4.20;1.50;;;19.40;42.00;;;;;;2233366;57;21023;-70
2023/05/30 02:37:03;;;;;;;4.32;1.60;;;19.40;42.20;;;;;;2233802;56;21067;-67
2023/05/30 02:39:29;;;;;;;3.78;1.75;;;19.30;42.30;;;;;;2233254;56;21050;-68
2023/05/30 02:41:56;;;;;;;3.25;1.58;;;19.30;42.40;;;;;;2233310;56;21027;-68
2023/05/30 02:44:22;;;;;;;3.22;1.40;;;19.30;42.50;;;;;;2233286;56;21016;-70
2023/05/30 02:46:48;;;;;;;2.95;1.45;;;19.20;42.50;;;;;;2456214;55;20972;-69
2023/05/30 02:49:15;;;;;;;3.37;1.62;;;19.20;42.60;;;;;;2448104;56;20970;-70
2023/05/30 02:51:41;;;;;;;3.72;1.80;;;19.20;42.80;;;;;;2234968;56;21019;-69
2023/05/30 02:54:08;;;;;;;3.50;1.42;;;19.10;42.80;;;;;;2455267;55;20968;-67
2023/05/30 02:56:34;;;;;;;3.40;1.55;;;19.10;42.80;;;;;;2232049;56;21393;-67
2023/05/30 02:59:02;;;;;;;2.83;1.35;;;19.10;42.70;;;;;;2454412;55;20972;-69
2023/05/30 03:01:28;;;;;;;2.37;1.25;;;19.00;42.60;;;;;;2232158;56;20959;-67
2023/05/30 03:03:54;;;;;;;2.90;1.30;;;19.00;42.70;;;;;;2454658;55;21027;-67
2023/05/30 03:06:21;;;;;;;3.40;1.67;;;19.00;42.80;;;;;;2455128;55;20944;-70
2023/05/30 03:08:57;;;;;;;3.00;1.37;;;18.90;42.80;;;;;;2464034;55;21036;-71
2023/05/30 03:11:27;;;;;;;2.83;1.45;;;18.90;43.00;;;;;;2465883;55;20958;-67
2023/05/30 03:13:53;;;;;;;3.67;1.50;;;18.80;42.90;;;;;;2232660;56;21556;-70
2023/05/30 03:16:20;;;;;;;3.12;1.58;;;18.80;42.80;;;;;;2248395;56;21586;-67
2023/05/30 03:18:46;;;;;;;3.30;1.70;;;18.80;43.00;;;;;;2230243;56;21516;-70
2023/05/30 03:21:12;;;;;;;3.30;1.67;;;18.70;43.10;;;;;;2230286;56;20967;-69
2023/05/30 03:23:39;;;;;;;3.90;1.67;;;18.70;43.30;;;;;;2229357;56;20996;-67
2023/05/30 03:26:06;;;;;;;5.30;2.15;;;18.70;43.50;;;;;;2453020;55;20969;-69
2023/05/30 03:28:33;;;;;;;3.65;1.40;;;18.60;43.70;;;;;;2229202;56;21476;-68
2023/05/30 03:31:00;;;;;;;3.65;1.70;;;18.60;43.90;;;;;;2229951;56;20987;-67
2023/05/30 03:33:28;;;;;;;3.92;1.90;;;18.60;43.90;;;;;;2452404;55;21271;-68
2023/05/30 03:35:56;;;;;;;3.55;1.67;;;18.60;43.90;;;;;;2452805;55;21062;-67
2023/05/30 03:38:22;;;;;;;3.78;1.80;;;18.60;44.10;;;;;;2229036;56;20975;-67
2023/05/30 03:40:49;;;;;;;2.70;1.35;;;18.50;44.00;;;;;;2229337;56;20986;-67
2023/05/30 03:43:15;;;;;;;4.57;2.00;;;18.50;44.00;;;;;;2236390;56;21129;-67
2023/05/30 03:45:42;;;;;;;4.65;1.70;;;18.50;44.00;;;;;;2462698;55;20986;-70
2023/05/30 03:48:11;;;;;;;3.40;1.50;;;18.50;44.20;;;;;;2231850;56;21053;-67
2023/05/30 03:50:37;;;;;;;3.53;1.55;;;18.50;44.30;;;;;;2454314;55;20967;-67
2023/05/30 03:53:05;;;;;;;3.22;1.55;;;18.50;44.20;;;;;;2230882;56;21011;-68
2023/05/30 03:55:32;;;;;;;5.20;1.85;;;18.50;44.30;;;;;;2229691;56;21047;-67
2023/05/30 03:57:59;;;;;;;2.67;1.33;;;18.50;44.30;;;;;;2232130;56;22048;-70
2023/05/30 04:00:25;;;;;;;4.70;1.50;;;18.50;44.30;;;;;;2231589;56;20984;-67
2023/05/30 04:02:51;;;;;;;3.95;1.30;;;18.50;44.30;;;;;;2454741;55;20960;-67
2023/05/30 04:05:18;;;;;;;3.83;1.60;;;18.50;44.30;;;;;;2231034;56;20956;-69
2023/05/30 04:07:44;;;;;;;3.47;1.58;;;18.50;44.30;;;;;;2236631;56;21893;-67
2023/05/30 04:10:11;;;;;;;3.55;1.40;;;18.40;44.20;;;;;;2231478;56;20946;-68
2023/05/30 04:12:37;;;;;;;3.80;1.70;;;18.40;44.30;;;;;;2231571;56;21000;-70
2023/05/30 04:15:04;;;;;;;3.10;1.48;;;18.40;44.40;;;;;;2453107;55;21036;-67
2023/05/30 04:17:30;;;;;;;2.78;1.37;;;18.40;44.50;;;;;;2229402;56;20960;-67
2023/05/30 04:19:57;;;;;;;3.03;1.37;;;18.40;44.50;;;;;;2470542;55;20991;-67
2023/05/30 04:22:24;;;;;;;4.12;1.55;;;18.30;44.40;;;;;;2470598;56;20962;-67
2023/05/30 04:24:50;;;;;;;3.10;1.37;;;18.30;44.60;;;;;;2232586;57;20994;-70
2023/05/30 04:27:17;;;;;;;3.67;1.62;;;18.30;44.70;;;;;;2254777;56;21635;-67
2023/05/30 04:29:43;;;;;;;3.85;1.60;;;18.30;44.70;;;;;;2482530;55;20933;-67
2023/05/30 04:32:10;;;;;;;2.60;1.15;;;18.20;44.60;;;;;;2255632;56;20969;-67
2023/05/30 04:34:38;;;;;;;2.92;1.25;;;18.20;44.60;;;;;;2254738;56;21410;-70
2023/05/30 04:37:06;;;;;;;2.70;1.20;;;18.20;44.60;;;;;;2482190;55;21597;-67
2023/05/30 04:39:35;;;;;;;2.55;1.10;;;18.20;44.60;;;;;;2253006;56;21004;-67
2023/05/30 04:42:04;;;;;;;3.00;1.35;;;18.20;44.70;;;;;;2253564;56;21063;-67
2023/05/30 04:44:37;;;;;;;2.60;1.20;;;18.20;44.70;;;;;;2476015;55;20945;-66
2023/05/30 04:47:10;;;;;;;4.15;1.23;;;18.10;44.70;;;;;;2484134;55;20953;-67
2023/05/30 04:49:41;;;;;;;4.12;1.50;;;18.10;44.80;;;;;;2483378;55;21888;-67
2023/05/30 04:52:09;;;;;;;4.40;1.90;;;18.10;44.80;;;;;;2256297;56;21429;-67
2023/05/30 04:54:39;;;;;;;3.75;1.70;;;18.10;44.80;;;;;;2483135;55;20969;-71
2023/05/30 04:57:06;;;;;;;4.10;1.80;;;18.10;45.00;;;;;;2256449;56;20973;-67
2023/05/30 04:59:34;;;;;;;5.35;1.60;;;18.10;45.00;;;;;;2258797;56;20964;-67
2023/05/30 05:02:00;;;;;;;4.07;1.70;;;18.10;45.20;;;;;;2249142;56;20953;-67
2023/05/30 05:04:26;;;;;;;2.92;1.45;;;18.10;45.30;;;;;;2255446;56;21084;-69
2023/05/30 05:06:53;;;;;;;5.47;1.75;;;18.10;45.40;;;;;;2482618;55;20995;-67
2023/05/30 05:09:24;;;;;;;4.60;1.50;;;18.10;45.50;;;;;;2251182;56;20956;-67
2023/05/30 05:11:53;;;;;;;4.40;1.35;;;18.10;45.60;;;;;;2252693;57;21059;-67
2023/05/30 05:14:20;;;;;;;3.87;1.50;;;18.10;45.60;;;;;;2257065;56;20953;-67
2023/05/30 05:16:46;;;;;;;3.30;1.30;;;18.10;45.60;;;;;;2257119;56;20945;-69
2023/05/30 05:19:12;;;;;;;5.10;1.75;;;18.10;45.70;;;;;;2256955;56;21132;-67
2023/05/30 05:21:39;;;;;;;3.53;1.52;;;18.10;45.70;;;;;;2257496;56;21035;-67
2023/05/30 05:24:07;;;;;;;2.85;1.30;;;18.20;45.90;;;;;;2252845;56;21505;-69
2023/05/30 05:26:34;;;;;;;4.62;2.03;;;18.20;46.00;;;;;;2484939;55;21073;-69
2023/05/30 05:29:03;;;;;;;3.72;1.80;;;18.20;46.00;;;;;;2257379;56;21005;-67
2023/05/30 05:31:32;;;;;;;3.55;1.67;;;18.30;46.20;;;;;;2256506;56;21052;-67
2023/05/30 05:33:59;;;;;;;3.92;1.83;;;18.30;46.20;;;;;;2485230;55;21497;-67
2023/05/30 05:36:27;;;;;;;3.42;1.80;;;18.30;46.20;;;;;;2484955;55;21484;-71
2023/05/30 05:38:55;;;;;;;4.43;1.75;;;18.30;46.20;;;;;;2257004;56;21560;-67
2023/05/30 05:41:22;;;;;;;4.57;1.73;;;18.40;46.50;;;;;;2485200;55;20929;-69
2023/05/30 05:43:48;;;;;;;4.15;1.55;;;18.40;46.50;;;;;;2454750;55;21003;-67
2023/05/30 05:46:15;;;;;;;4.35;1.65;;;18.40;46.60;;;;;;2238059;56;21460;-70
2023/05/30 05:48:44;;;;;;;4.37;1.83;;;18.40;46.60;;;;;;2454209;55;21087;-67
2023/05/30 05:51:13;;;;;;;5.22;1.98;;;18.50;46.80;;;;;;2231799;56;21497;-67
2023/05/30 05:53:40;;;;;;;5.87;1.70;;;18.50;46.90;;;;;;2470748;55;21018;-69
2023/05/30 05:56:06;;;;;;;4.40;1.60;;;18.50;46.90;;;;;;2232539;56;21000;-70
2023/05/30 05:58:33;;;;;;;5.05;2.05;;;18.60;47.10;;;;;;2454391;55;21091;-69
2023/05/30 06:00:59;;;;;;;3.83;1.70;;;18.60;47.10;;;;;;2232031;56;21685;-67
2023/05/30 06:03:26;;;;;;;3.65;1.80;;;18.70;47.20;;;;;;2232020;56;20944;-69
2023/05/30 06:05:52;;;;;;;5.05;2.03;;;18.70;47.20;;;;;;2475079;55;20977;-68
2023/05/30 06:08:19;;;;;;;4.25;2.12;;;18.70;47.20;;;;;;2256702;56;20953;-70
2023/05/30 06:10:45;;;;;;;4.40;1.90;;;18.70;47.20;;;;;;2484994;55;20968;-69
2023/05/30 06:13:13;;;;;;;4.07;1.70;;;18.80;47.20;;;;;;2256856;56;20945;-67
2023/05/30 06:15:40;;;;;;;3.65;1.85;;;18.80;47.20;;;;;;2484987;55;20937;-69
2023/05/30 06:18:07;;;;;;;3.95;1.70;;;18.80;47.30;;;;;;2485921;55;20963;-68
2023/05/30 06:20:33;;;;;;;9.10;1.77;;;18.90;47.50;;;;;;2257078;56;20973;-69
2023/05/30 06:23:00;;;;;;;3.58;1.92;;;18.90;47.50;;;;;;2259943;56;20977;-69
2023/05/30 06:25:27;;;;;;;4.32;2.50;;;19.00;47.60;;;;;;2476153;55;20949;-70
2023/05/30 06:27:54;;;;;;;4.22;1.87;;;19.00;47.60;;;;;;2478758;55;20942;-68
2023/05/30 06:30:21;;;;;;;4.68;2.00;;;19.10;47.70;;;;;;2485011;55;21112;-68
2023/05/30 06:32:48;;;;;;;4.40;2.03;;;19.10;47.70;;;;;;2257116;56;20943;-68
2023/05/30 06:35:15;;;;;;;4.60;1.95;;;19.20;47.70;;;;;;2257620;56;20977;-68
2023/05/30 06:37:41;;;;;;;4.00;1.98;;;19.20;47.70;;;;;;2475390;55;21047;-68
2023/05/30 06:40:09;;;;;;;3.35;1.62;;;19.30;47.70;;;;;;2257024;56;20996;-68
2023/05/30 06:42:37;;;;;;;4.15;1.73;;;19.30;47.70;;;;;;2256044;56;20952;-68
2023/05/30 06:45:04;;;;;;;4.32;1.87;;;19.40;47.90;;;;;;2255449;56;21029;-70
2023/05/30 06:47:31;;;;;;;4.53;2.00;;;19.50;48.00;;;;;;2256442;56;21421;-68
2023/05/30 06:49:58;;;;;;;4.18;1.70;;;19.50;47.90;;;;;;2482628;55;21588;-70
2023/05/30 06:52:24;;;;;;;5.25;2.03;;;19.60;47.90;;;;;;2255022;56;21767;-71
2023/05/30 06:54:52;;;;;;;4.62;2.05;;;19.60;47.90;;;;;;2473401;55;20991;-69
2023/05/30 06:57:18;;;;;;;5.47;2.35;;;19.70;47.90;;;;;;2254676;56;20988;-70
2023/05/30 06:59:46;;;;;;;6.45;1.85;;;19.80;47.90;;;;;;2481713;55;21064;-68
2023/05/30 07:02:15;;;;;;;5.82;2.12;;;19.80;47.90;;;;;;2482298;55;21029;-76
2023/05/30 07:04:42;;;;;;;5.20;2.28;;;19.90;48.00;;;;;;2254204;56;21053;-70
2023/05/30 07:07:10;;;;;;;3.97;1.90;;;19.90;47.90;;;;;;2255365;56;20969;-69
2023/05/30 07:09:36;;;;;;;6.22;2.10;;;20.00;47.90;;;;;;2483158;55;20973;-71
2023/05/30 07:12:03;;;;;;;4.82;1.90;;;20.00;47.90;;;;;;2257437;56;21056;-71
2023/05/30 07:14:30;;;;;;;6.28;2.55;;;20.10;47.90;;;;;;2251644;56;20973;-68
2023/05/30 07:17:00;;;;;;;3.75;1.65;;;20.20;48.00;;;;;;2236476;56;21055;-70
2023/05/30 07:19:26;;;;;;;3.58;1.58;;;20.20;48.10;;;;;;2231689;56;20971;-68
2023/05/30 07:21:53;;;;;;;4.40;1.85;;;20.30;48.10;;;;;;2221855;56;21434;-69
2023/05/30 07:24:24;;;;;;;4.47;2.17;;;20.40;48.20;;;;;;2444936;56;20976;-68
2023/05/30 07:26:51;;;;;;;3.30;1.65;;;20.40;48.30;;;;;;2445239;56;20977;-68
2023/05/30 07:29:18;;;;;;;3.70;1.62;;;20.50;48.10;;;;;;2230221;56;21023;-71
2023/05/30 07:31:45;;;;;;;4.00;1.87;;;20.60;48.20;;;;;;2230209;56;20971;-74
2023/05/30 07:34:13;;;;;;;4.55;1.73;;;20.60;48.00;;;;;;2453091;55;21015;-67
2023/05/30 07:36:39;;;;;;;4.12;1.95;;;20.70;48.00;;;;;;2229933;57;21103;-69
2023/05/30 07:39:06;;;;;;;3.62;1.48;;;20.80;47.90;;;;;;2230704;56;20979;-69
2023/05/30 07:41:32;;;;;;;6.25;2.10;;;20.90;47.80;;;;;;2452466;55;21576;-71
2023/05/30 07:43:58;;;;;;;4.28;2.10;;;20.90;47.70;;;;;;2449905;55;22105;-69
2023/05/30 07:46:25;;;;;;;6.03;1.87;;;21.00;47.60;;;;;;2230473;56;20952;-69
2023/05/30 07:48:51;;;;;;;4.28;1.77;;;21.10;47.70;;;;;;2229921;56;21607;-69
2023/05/30 07:51:24;;;;;;;6.75;1.90;;;21.10;47.80;;;;;;2452846;55;21928;-72
2023/05/30 07:53:55;;;;;;;3.60;1.65;;;21.20;47.90;;;;;;2230553;57;20979;-70
2023/05/30 07:56:22;;;;;;;3.17;1.40;;;21.30;47.80;;;;;;2423373;56;21126;-69
2023/05/30 07:58:53;;;;;;;4.03;1.65;;;21.30;47.60;;;;;;2440769;56;21529;-68
2023/05/30 08:01:26;;;;;;;4.85;1.80;;;21.40;47.60;;;;;;2449165;55;20976;-69
2023/05/30 08:04:15;;;;;;;8.43;2.10;;;21.50;47.60;;;;;;2438059;56;21007;-70
2023/05/30 08:07:14;;;;;;;4.43;2.00;;;21.50;47.40;;;;;;2435350;55;21018;-69
2023/05/30 08:10:22;;;;;;;4.72;2.30;;;21.60;47.40;;;;;;2458453;55;20965;-70
2023/05/30 08:13:00;;;;;;;3.67;1.70;;;21.70;47.20;;;;;;2246257;56;21877;-68
2023/05/30 08:15:57;;;;;;;3.00;1.45;;;21.70;47.10;;;;;;2444406;55;21036;-69
2023/05/30 08:18:52;;;;;;;;;;;;;;;;;;;;;
2023/05/30 08:32:40;;;;;;;;;;;;;;;;;;;;;
2023/05/30 08:36:36;;;;;;;4.40;1.65;;;22.20;46.50;;;;;;2433852;56;22062;-72
2023/05/30 10:43:25;;;;;;;4.90;1.75;;;24.80;45.10;;;;;;2438035;55;21089;-71
2023/05/30 10:48:25;;;;;;;2.85;1.60;;;24.90;44.80;;;;;;2353981;57;20995;-70
2023/05/30 10:51:26;;;;;;;4.62;1.95;;;25.20;44.40;;;;;;2369750;57;21086;-70
2023/05/30 10:56:14;;;;;;;4.55;1.80;;;25.20;44.20;;;;;;2246878;55;21049;-69
2023/05/30 11:00:06;;;;;;;3.25;1.60;;;25.20;44.20;;;;;;2424846;56;20979;-70
2023/05/30 11:09:21;;;;;;;4.80;1.75;;;25.30;44.00;;;;;;2474043;55;20979;-71
2023/05/30 11:48:47;;;;;;;;;;;;;;;;;;;;;
2023/05/30 12:07:18;;;;;;;3.53;1.52;;;26.60;42.80;;;;;;2457811;55;20990;-69
2023/05/30 12:10:45;;;;;;;4.62;2.17;;;26.70;42.00;;;;;;2447371;55;21538;-71
2023/05/30 12:14:21;;;;;;;3.08;1.52;;;26.70;41.50;;;;;;2482249;55;21052;-73
2023/05/30 12:55:12;;;;;;;5.32;1.62;;;26.80;42.10;;;;;;2417842;56;21542;-72
2023/05/30 13:01:33;;;;;;;;;;;;;;;;;;;;;
2023/05/30 13:05:14;;;;;;;3.53;1.50;;;27.60;40.10;;;;;;2399131;55;21035;-73
2023/05/30 13:19:54;;;;;;;4.57;1.67;;;27.90;39.60;;;;;;2430332;55;21218;-70
2023/05/30 13:44:37;;;;;;;;;;;;;;;;;;;;;
2023/05/30 14:07:02;;;;;;;3.75;1.30;;;28.50;38.40;;;;;;2446986;56;21064;-69
2023/05/30 14:14:05;;;;;;;3.62;1.70;;;28.60;37.30;;;;;;2461884;55;20992;-66
2023/05/30 14:16:56;;;;;;;3.87;1.80;;;28.60;37.00;;;;;;2464933;55;21561;-68
2023/05/30 14:20:18;;;;;;;5.93;1.87;;;28.60;37.10;;;;;;2240785;57;21022;-69
2023/05/30 14:24:10;;;;;;;3.30;1.50;;;28.60;36.80;;;;;;2467503;56;20945;-67
2023/05/30 14:44:40;;;;;;;3.42;1.25;;;28.80;37.20;;;;;;2421436;56;21085;-69
2023/05/30 14:48:12;;;;;;;;;;;;;;;;;;;;;
2023/05/30 14:50:45;;;;;;;5.43;1.58;;;28.80;36.50;;;;;;2426025;56;21029;-67
2023/05/30 14:53:42;;;;;;;;;;;;;;;;;;;;;
2023/05/30 14:57:03;;;;;;;4.57;2.10;;;28.90;35.80;;;;;;2210494;57;21042;-69
2023/05/30 14:59:52;;;;;;;4.05;1.55;;;28.90;35.50;;;;;;2206758;57;25602;-68
2023/05/30 15:09:31;;;;;;;;;;;;;;;;;;;;;
2023/05/30 15:20:15;;;;;;;5.60;1.80;;;28.80;34.80;;;;;;2319613;58;22058;-70
2023/05/30 15:33:34;;;;;;;4.65;1.80;;;28.70;34.80;;;;;;2291238;60;21051;-70
2023/05/30 15:36:03;;;;;;;3.60;1.65;;;28.70;35.10;;;;;;2204181;56;21081;-69
2023/05/30 15:39:53;;;;;;;;;;;;;;;;;;;;;
2023/05/30 15:43:00;;;;;;;;;;;;;;;;;;;;;
2023/05/30 15:46:31;;;;;;;4.47;1.62;;;28.60;34.40;;;;;;2439739;55;20967;-69
2023/05/30 15:50:12;;;;;;;4.60;1.80;;;28.60;34.20;;;;;;2418912;56;21477;-68
2023/05/30 15:57:33;;;;;;;4.20;1.60;;;28.50;34.20;;;;;;2325109;58;21060;-71
2023/05/30 16:01:03;;;;;;;3.17;1.42;;;28.50;33.90;;;;;;2322207;58;21930;-70
2023/05/30 16:10:07;;;;;;;3.80;1.62;;;28.50;34.00;;;;;;2262915;60;21041;-71
2023/05/30 16:14:52;;;;;;;;;;;;;;;;;;;;;
2023/05/30 16:21:36;;;;;;;;;;;;;;;;;;;;;
2023/05/30 16:37:05;;;;;;;3.85;1.45;;;28.40;34.40;;;;;;2235621;61;21064;-70
2023/05/30 16:40:42;;;;;;;2.67;1.25;;;28.20;34.20;;;;;;2417559;56;20945;-70
2023/05/30 16:50:18;;;;;;;;;;;;;;;;;;;;;
2023/05/30 16:56:07;;;;;;;;;;;;;;;;;;;;;
2023/05/30 17:39:05;;;;;;;;;;;;;;;;;;;;;
2023/05/30 17:45:58;;;;;;;5.37;1.00;;;27.70;33.90;;;;;;2313798;58;21103;-70
2023/05/30 17:49:25;;;;;;;2.78;1.00;;;27.80;34.00;;;;;;2298485;59;21936;-68
2023/05/30 17:56:00;;;;;;;;;;;;;;;;;;;;;
2023/05/30 17:59:30;;;;;;;;;;;;;;;;;;;;;
2023/05/30 18:02:24;;;;;;;5.47;1.02;;;28.20;33.30;;;;;;2126696;61;21668;-71
2023/05/30 18:17:52;;;;;;;3.45;1.48;;;28.40;33.30;;;;;;2212253;59;21190;-71
2023/05/30 18:23:10;;;;;;;3.12;1.20;;;28.60;33.10;;;;;;2482238;54;28861;-69
2023/05/30 18:32:30;;;;;;;2.55;1.00;;;29.00;32.60;;;;;;2391217;56;21076;-70
2023/05/30 18:35:28;;;;;;;2.60;1.12;;;28.90;32.50;;;;;;2389293;57;21022;-71
2023/05/30 18:38:04;;;;;;;2.15;0.95;;;28.70;33.30;;;;;;2172109;57;21001;-71
2023/05/30 18:47:21;;;;;;;3.37;1.12;;;28.50;32.60;;;;;;2309176;58;21018;-68
2023/05/30 18:51:00;;;;;;;2.08;0.70;;;28.40;32.70;;;;;;2348614;57;21025;-68
2023/05/30 18:53:47;;;;;;;2.60;0.90;;;28.20;32.50;;;;;;2218114;57;21100;-71
2023/05/30 18:56:22;;;;;;;2.92;0.93;;;28.00;32.70;;;;;;2442219;55;20971;-70
2023/05/30 18:58:58;;;;;;;3.08;1.08;;;27.90;32.70;;;;;;2238485;56;21091;-70
2023/05/30 19:01:31;;;;;;;2.58;0.93;;;27.70;32.70;;;;;;2463671;55;20968;-69
2023/05/30 19:04:08;;;;;;;2.55;1.00;;;27.60;32.70;;;;;;2451920;55;20971;-71
2023/05/30 19:06:40;;;;;;;2.42;1.00;;;27.50;32.70;;;;;;2432226;55;20985;-69
2023/05/30 19:16:50;;;;;;;2.30;0.85;;;27.30;32.80;;;;;;2237773;57;21595;-72
2023/05/30 19:19:36;;;;;;;2.35;0.80;;;27.10;33.00;;;;;;2458292;56;21472;-70
2023/05/30 19:22:14;;;;;;;2.87;0.90;;;26.90;33.00;;;;;;2457512;55;21032;-70
2023/05/30 19:24:43;;;;;;;2.27;0.83;;;26.70;33.00;;;;;;2419176;56;21112;-70
2023/05/30 19:27:23;;;;;;;2.47;1.00;;;26.60;33.10;;;;;;2449191;55;21004;-69
2023/05/30 19:30:04;;;;;;;3.08;1.00;;;26.50;33.30;;;;;;2462484;55;21038;-71
2023/05/30 19:32:36;;;;;;;2.72;1.00;;;26.40;33.30;;;;;;2467616;55;20969;-68
2023/05/30 19:35:18;;;;;;;2.30;1.05;;;26.30;33.30;;;;;;2472870;55;21089;-71
2023/05/30 19:38:05;;;;;;;3.85;1.20;;;26.20;33.50;;;;;;2239923;55;20977;-69
2023/05/30 19:40:38;;;;;;;2.15;0.80;;;26.00;33.50;;;;;;2452864;55;21009;-70
2023/05/30 19:43:21;;;;;;;3.15;1.10;;;26.00;33.60;;;;;;2440939;55;20948;-71
2023/05/30 19:45:53;;;;;;;3.15;0.85;;;25.80;33.50;;;;;;2252005;55;21482;-69
2023/05/30 19:48:31;;;;;;;2.72;0.90;;;25.70;33.60;;;;;;2460233;55;21039;-68
2023/05/30 19:51:10;;;;;;;3.00;1.00;;;25.70;33.80;;;;;;2449139;55;21011;-69
2023/05/30 19:54:01;;;;;;;2.62;1.20;;;25.60;34.00;;;;;;2474817;55;20998;-68
2023/05/30 19:56:39;;;;;;;3.78;1.10;;;25.50;34.00;;;;;;2482968;55;21345;-68
2023/05/30 19:59:32;;;;;;;3.12;1.12;;;25.40;34.00;;;;;;2457490;55;21508;-72
2023/05/30 20:14:36;;;;;;;1.85;0.73;;;25.30;34.00;;;;;;2260954;56;21635;-69
2023/05/30 20:17:10;;;;;;;1.73;0.55;;;24.90;34.20;;;;;;2469588;55;21589;-68
2023/05/30 20:19:56;;;;;;;2.47;0.80;;;24.80;34.10;;;;;;2482275;55;21071;-68
2023/05/30 20:22:34;;;;;;;1.98;0.82;;;24.70;34.10;;;;;;2488779;55;21026;-68
2023/05/30 20:25:05;;;;;;;3.37;1.40;;;24.60;34.20;;;;;;2497818;55;21062;-69
2023/05/30 20:28:16;;;;;;;;;;;;;;;;;;;;;
2023/05/30 20:34:25;;;;;;;;;;;;;;;;;;;;;
2023/05/30 20:37:46;;;;;;;3.92;0.70;;;24.20;34.20;;;;;;2101061;59;21593;-68
2023/05/30 20:42:01;;;;;;;2.33;0.80;;;24.10;34.00;;;;;;2318619;59;21145;-71
2023/05/30 20:45:45;;;;;;;3.08;0.75;;;23.90;33.60;;;;;;2351281;57;21056;-68
2023/05/30 20:49:18;;;;;;;;;;;;;;;;;;;;;
2023/05/30 21:25:39;;;;;;;2.60;0.80;;;23.70;33.70;;;;;;2179853;58;21799;-68
2023/05/30 21:29:05;;;;;;;;;;;;;;;;;;;;;
2023/05/30 21:37:52;;;;;;;2.00;0.70;;;22.80;34.30;;;;;;2502528;55;20983;-68
2023/05/30 21:40:53;;;;;;;3.28;1.15;;;22.70;34.30;;;;;;2461074;55;21055;-68
2023/05/30 21:44:17;;;;;;;1.83;0.82;;;22.60;34.40;;;;;;2513581;55;21968;-68
2023/05/30 21:47:12;;;;;;;3.78;1.00;;;22.50;34.30;;;;;;2478072;55;21808;-68
2023/05/30 21:49:42;;;;;;;2.33;0.90;;;22.50;34.40;;;;;;2264877;56;21096;-69
2023/05/30 21:52:32;;;;;;;2.00;0.80;;;22.40;34.40;;;;;;2465068;55;21046;-68
2023/05/30 21:55:03;;;;;;;3.17;0.80;;;22.40;34.50;;;;;;2467897;55;20950;-70
2023/05/30 21:57:38;;;;;;;2.70;0.90;;;22.30;34.40;;;;;;2237993;55;20980;-69
2023/05/30 22:00:27;;;;;;;3.42;1.00;;;22.20;34.40;;;;;;2489180;55;21513;-69
2023/05/30 22:03:00;;;;;;;2.12;0.85;;;22.20;34.40;;;;;;2454495;55;20961;-68
2023/05/30 22:05:47;;;;;;;2.70;1.15;;;22.10;34.40;;;;;;2451166;55;22012;-68
2023/05/30 22:08:14;;;;;;;3.20;1.33;;;22.10;34.50;;;;;;2229254;56;21005;-68
2023/05/30 22:10:45;;;;;;;3.33;1.40;;;22.00;34.40;;;;;;2240574;56;20943;-68
2023/05/30 22:13:13;;;;;;;3.50;1.00;;;21.90;34.50;;;;;;2238298;56;21028;-68
2023/05/30 22:15:40;;;;;;;2.67;1.10;;;21.80;34.50;;;;;;2265762;56;21028;-70
2023/05/30 22:18:07;;;;;;;2.70;0.95;;;21.80;34.50;;;;;;2501061;55;21097;-67
2023/05/30 22:20:35;;;;;;;2.62;1.10;;;21.70;34.60;;;;;;2467334;55;20951;-69
2023/05/30 22:23:04;;;;;;;3.50;1.00;;;21.60;34.60;;;;;;2463610;55;21017;-67
2023/05/30 22:25:30;;;;;;;2.45;1.02;;;21.60;34.80;;;;;;2260160;56;20980;-67
2023/05/30 22:27:57;;;;;;;2.83;1.10;;;21.50;34.80;;;;;;2265627;56;21050;-67
2023/05/30 22:30:23;;;;;;;2.58;0.82;;;21.40;34.80;;;;;;2263994;56;20969;-71
2023/05/30 22:32:49;;;;;;;1.98;0.80;;;21.30;34.80;;;;;;2261546;56;20945;-67
2023/05/30 22:35:17;;;;;;;3.10;1.00;;;21.30;34.70;;;;;;2242413;56;21080;-70
2023/05/30 22:37:46;;;;;;;2.00;0.82;;;21.20;34.60;;;;;;2260167;56;20968;-67
2023/05/30 22:40:16;;;;;;;2.55;0.80;;;21.10;34.50;;;;;;2265594;56;20996;-67
2023/05/30 22:42:42;;;;;;;1.65;0.77;;;21.00;34.50;;;;;;2458826;55;20993;-68
2023/05/30 22:45:09;;;;;;;2.03;0.80;;;20.90;34.40;;;;;;2265515;55;21004;-69
2023/05/30 22:47:36;;;;;;;2.50;0.80;;;20.90;34.50;;;;;;2260369;57;21028;-70
2023/05/30 22:50:03;;;;;;;2.45;1.00;;;20.80;34.40;;;;;;2265631;56;20966;-67